Airfield :
LOGIN :

Register | Disclaimer

   EN    FR    IT 

 










Legend :    VFR   Marginal VFR   IFR   Intensive IFR   Very Intensive IFR
Visi :
Ceiling :
>= 8 km
>= 3000ft
5 to 8 km
1000 to 3000 ft
1500m to 5 km
500 to 1000 ft
800 to 1500m
200 to 500 ft
< 800m
< 200 ft
Symbols :   Thunderstorms  Fog  Heavy snow  Heavy precipitations  Wind > 20 kt
SIGMETs :     Misc.  Thunderstorms  Icing  Turbulence  Mountain Waves  Volcanic Ashes







- Airport Elevation : 287 ft
- Download approach charts


LFRL - Lanveoc Poulmic

CURRENT METAR :
  • 170400Z AUTO 31011KT 9999 FEW040 07/01 Q1013

EXPIRED METARs :
  • 170330Z AUTO 31013KT 9999 ///TCU 07/02 Q1012
  • 170300Z AUTO 31011KT 9999 FEW036 07/03 Q1012
  • 170230Z AUTO 29010KT 9999 BKN035/// BKN058/// BKN120/// ///CB 07/04 Q1012
  • 170200Z AUTO 30012KT 9999 FEW035/// BKN064/// BKN086/// ///TCU 08/04 Q1011
  • 170130Z AUTO 29014KT 9999 FEW033/// SCT049/// BKN056/// ///TCU 07/03 Q1011

TAF TAF LFRL
Valid from the 16 at 12:00 until the 17 at 12:00 UTC


161100Z 1612/1712 21009KT 6000 DZ OVC009
TEMPO 1612/1614 3000 RADZ BKN005
BECMG 1614/1616 30012KT SCT020
TEMPO 1621/1712 30012G22KT 3000 SHRA BKN020TCU
No reported NOTAMs for that airfield.



MET'MAP, your aeronautical weather chart ! - Copyright ORBIFLY December 2007 - Disclaimer

ORBIFLY MET'MAP TEAM :

Programming & Development : Alexandra Zaïnal
Concept & Development : Baudouin d'Aumeries
Co-Development & Prog : Marc-Olivier Méhu
Technical & hardware support : Manuel Goepfert

Contact : metmap@orbifly.com




SOURCES & CREDITS :

   NOAA